createdAt,value
2023-04-27T00:02:36.507Z,99353.23
2023-04-27T00:05:42.226Z,99352.99
2023-04-27T00:08:49.095Z,99353.50
2023-04-27T00:11:55.820Z,99354.00
2023-04-27T00:15:00.834Z,99360.10
2023-04-27T00:18:08.187Z,99360.10
2023-04-27T00:21:15.001Z,99349.52
2023-04-27T00:24:21.240Z,99332.91
2023-04-27T00:27:26.132Z,99342.89
2023-04-27T00:30:31.275Z,99342.72
2023-04-27T00:33:36.906Z,99332.38
2023-04-27T00:36:42.422Z,99312.14
2023-04-27T00:39:48.962Z,99296.58
2023-04-27T00:42:55.216Z,99277.89
2023-04-27T00:46:02.773Z,99269.89
2023-04-27T00:49:08.254Z,99275.45
2023-04-27T00:52:14.936Z,99276.08
2023-04-27T00:55:21.230Z,99268.24
2023-04-27T00:58:28.239Z,99274.04
2023-04-27T01:01:33.458Z,99273.73
2023-04-27T01:04:39.108Z,99280.27
2023-04-27T01:07:45.887Z,99281.62
2023-04-27T01:10:53.068Z,99279.92
2023-04-27T01:13:59.254Z,99295.86
2023-04-27T01:17:06.329Z,99312.56
2023-04-27T01:20:13.667Z,99315.41
2023-04-27T01:23:18.703Z,99286.91
2023-04-27T01:26:24.480Z,99286.69
2023-04-27T01:29:31.055Z,99278.84
2023-04-27T01:32:36.913Z,99265.54
2023-04-27T01:35:42.917Z,99219.17
2023-04-27T01:38:48.903Z,99258.95
2023-04-27T01:41:58.272Z,99271.95
2023-04-27T01:45:02.521Z,99281.52
2023-04-27T01:48:09.072Z,99268.98
2023-04-27T01:51:15.091Z,99255.06
2023-04-27T01:54:20.138Z,99255.53
2023-04-27T01:57:25.830Z,99262.20
2023-04-27T02:00:33.415Z,99266.93
2023-04-27T02:03:38.688Z,99255.53
2023-04-27T02:06:43.785Z,99253.09
2023-04-27T02:09:49.196Z,99248.33
2023-04-27T02:12:55.484Z,99253.70
2023-04-27T02:16:00.616Z,99247.18
2023-04-27T02:19:05.957Z,99250.45
2023-04-27T02:22:11.130Z,99261.94
2023-04-27T02:25:16.575Z,99253.02
2023-04-27T02:28:21.561Z,99256.38
2023-04-27T02:31:27.681Z,99238.87
2023-04-27T02:34:32.676Z,99239.91
2023-04-27T02:37:38.263Z,99230.04
2023-04-27T02:40:46.817Z,99222.99
2023-04-27T03:10:21.758Z,99240.69
2023-04-27T03:13:29.331Z,99257.75
2023-04-27T03:16:34.533Z,99264.54
2023-04-27T03:19:42.166Z,99253.47
2023-04-27T03:22:41.145Z,99261.27
2023-04-27T03:25:46.487Z,99265.06
2023-04-27T03:28:52.038Z,99280.02
2023-04-27T03:32:00.512Z,99264.53
2023-04-27T03:35:06.182Z,99265.03
2023-04-27T03:38:11.353Z,99248.50
2023-04-27T03:41:18.759Z,99250.81
2023-04-27T03:44:24.065Z,99266.43
2023-04-27T03:47:30.676Z,99272.53
2023-04-27T03:50:35.896Z,99284.25
2023-04-27T03:53:41.742Z,99289.63
2023-04-27T03:56:48.209Z,99290.17
2023-04-27T03:59:53.815Z,99283.94
2023-04-27T04:03:00.641Z,99280.58
2023-04-27T04:06:07.480Z,99269.70
2023-04-27T04:09:14.426Z,99262.19
2023-04-27T04:12:21.406Z,99267.78
2023-04-27T04:15:27.910Z,99273.77
2023-04-27T04:18:34.431Z,99284.61
2023-04-27T04:21:41.511Z,99280.94
2023-04-27T04:24:46.922Z,99273.77
2023-04-27T04:27:55.416Z,99259.95
2023-04-27T04:31:02.293Z,99247.88
2023-04-27T04:34:07.900Z,99248.59
2023-04-27T04:37:13.631Z,99253.25
2023-04-27T04:40:23.024Z,99252.83
2023-04-27T04:43:29.353Z,99245.66
2023-04-27T04:46:37.565Z,99259.88
2023-04-27T04:49:44.403Z,99260.19
2023-04-27T04:52:50.695Z,99269.94
2023-04-27T04:55:50.147Z,99259.67
2023-04-27T04:58:42.921Z,99256.33
2023-04-27T05:01:49.080Z,99252.47
2023-04-27T05:04:55.007Z,99245.59
2023-04-27T05:07:55.385Z,99245.09
2023-04-27T05:11:09.497Z,99239.34
2023-04-27T05:14:14.153Z,99233.13
2023-04-27T05:17:20.541Z,99235.59
2023-04-27T05:20:25.513Z,99231.56
2023-04-27T05:23:30.736Z,99240.56
2023-04-27T05:26:37.000Z,99236.93
2023-04-27T05:29:42.331Z,99243.16
2023-04-27T05:32:47.681Z,99245.64
2023-04-27T05:35:54.843Z,99244.02
2023-04-27T05:39:01.298Z,99239.30
2023-04-27T05:42:06.531Z,99248.08
2023-04-27T05:45:11.633Z,99244.61
2023-04-27T05:48:17.044Z,99238.51
2023-04-27T05:51:23.432Z,99234.42
2023-04-27T05:54:28.440Z,99231.11
2023-04-27T05:57:34.116Z,99229.22
2023-04-27T06:00:28.496Z,99227.12
2023-04-27T06:03:33.633Z,99226.16
2023-04-27T06:06:39.903Z,99221.43
2023-04-27T06:09:46.175Z,99226.89
2023-04-27T06:12:52.498Z,99215.53
2023-04-27T06:15:58.390Z,99210.74
2023-04-27T06:19:08.077Z,99211.65
2023-04-27T06:22:13.315Z,99209.75
2023-04-27T06:25:20.015Z,99205.91
2023-04-27T06:28:25.583Z,99202.20
2023-04-27T06:31:32.365Z,99203.06
2023-04-27T06:34:37.963Z,99197.09
2023-04-27T06:37:42.903Z,99198.44
2023-04-27T06:40:48.207Z,99197.05
2023-04-27T06:43:55.818Z,99201.53
2023-04-27T06:47:02.220Z,99194.34
2023-04-27T06:50:07.031Z,99202.45
2023-04-27T06:53:15.269Z,99194.13
2023-04-27T06:56:24.726Z,99199.42
2023-04-27T06:59:30.591Z,99194.86
2023-04-27T07:02:36.510Z,99199.63
2023-04-27T07:05:34.684Z,99199.90
2023-04-27T07:08:27.282Z,99212.05
2023-04-27T07:11:32.288Z,99205.84
2023-04-27T07:14:40.890Z,99203.84
2023-04-27T07:17:46.538Z,99200.95
2023-04-27T07:20:52.971Z,99203.58
2023-04-27T07:23:58.935Z,99209.08
2023-04-27T07:27:06.332Z,99200.59
2023-04-27T07:30:13.107Z,99202.36
2023-04-27T07:33:19.998Z,99205.05
2023-04-27T07:36:27.170Z,99200.84
2023-04-27T07:39:34.038Z,99200.75
2023-04-27T07:42:39.754Z,99204.75
2023-04-27T07:45:47.762Z,99203.28
2023-04-27T07:48:53.077Z,99194.67
2023-04-27T07:51:59.181Z,99186.03
2023-04-27T07:55:05.062Z,99186.62
2023-04-27T07:58:10.682Z,99190.20
2023-04-27T08:01:16.867Z,99189.80
2023-04-27T08:04:26.933Z,99194.73
2023-04-27T08:07:34.618Z,99190.80
2023-04-27T08:10:40.450Z,99199.63
2023-04-27T08:13:41.620Z,99192.97
2023-04-27T08:16:50.382Z,99200.22
2023-04-27T08:19:56.783Z,99194.11
2023-04-27T08:23:02.031Z,99191.58
2023-04-27T08:26:07.672Z,99182.73
2023-04-27T08:29:24.126Z,99185.47
2023-04-27T08:32:21.510Z,99182.21
2023-04-27T08:35:27.874Z,99187.45
2023-04-27T08:38:34.053Z,99191.06
2023-04-27T08:41:39.773Z,99188.84
2023-04-27T08:44:47.064Z,99186.37
2023-04-27T08:47:53.901Z,99184.22
2023-04-27T08:50:52.369Z,99175.67
2023-04-27T08:53:51.272Z,99170.23
2023-04-27T08:56:57.348Z,99178.94
2023-04-27T09:00:15.085Z,99171.62
2023-04-27T09:03:20.338Z,99173.01
2023-04-27T09:06:26.765Z,99177.73
2023-04-27T09:09:31.662Z,99175.25
2023-04-27T09:12:37.466Z,99180.05
2023-04-27T09:15:42.725Z,99174.19
2023-04-27T09:18:49.599Z,99173.70
2023-04-27T09:21:57.756Z,99166.79
2023-04-27T09:25:07.252Z,99165.39
2023-04-27T09:28:13.156Z,99170.13
2023-04-27T09:31:18.731Z,99168.11
2023-04-27T09:34:23.994Z,99163.35
2023-04-27T09:37:29.495Z,99167.29
2023-04-27T09:40:33.790Z,99164.77
2023-04-27T09:43:39.529Z,99162.58
2023-04-27T09:46:45.621Z,99170.92
2023-04-27T09:49:51.113Z,99170.64
2023-04-27T09:52:57.321Z,99171.78
2023-04-27T09:56:19.066Z,99178.25
2023-04-27T09:59:49.811Z,99178.30
2023-04-27T10:03:26.928Z,99170.26
2023-04-27T10:07:03.540Z,99175.02
2023-04-27T10:10:09.375Z,99176.45
2023-04-27T10:13:18.426Z,99177.27
2023-04-27T10:16:33.205Z,99176.67
2023-04-27T10:19:38.093Z,99185.87
2023-04-27T10:23:01.008Z,99180.59
2023-04-27T10:26:09.221Z,99181.39
2023-04-27T10:29:23.288Z,99176.63
2023-04-27T10:32:41.237Z,99183.02
2023-04-27T10:35:53.110Z,99179.18
2023-04-27T10:39:00.076Z,99181.44
2023-04-27T10:42:09.410Z,99177.80
2023-04-27T10:45:07.994Z,99180.57
2023-04-27T10:47:54.442Z,99181.19
2023-04-27T10:50:47.361Z,99186.18
2023-04-27T10:53:34.600Z,99188.41
2023-04-27T10:56:27.647Z,99191.77
2023-04-27T10:59:14.535Z,99189.23
2023-04-27T11:02:07.312Z,99190.08
2023-04-27T11:04:53.028Z,99197.88
2023-04-27T11:07:45.700Z,99197.32
2023-04-27T11:10:32.705Z,99197.90
2023-04-27T11:13:27.093Z,99204.31
2023-04-27T11:16:13.538Z,99203.76
2023-04-27T11:19:08.330Z,99200.43
2023-04-27T11:22:20.441Z,99197.36
2023-04-27T11:25:25.947Z,99196.23
2023-04-27T11:28:38.360Z,99200.41
2023-04-27T11:31:56.521Z,99196.78
2023-04-27T11:35:09.051Z,99202.64
2023-04-27T11:38:14.118Z,99200.40
2023-04-27T11:41:23.011Z,99194.28
2023-04-27T11:44:28.413Z,99190.12
2023-04-27T11:47:34.743Z,99179.84
2023-04-27T11:50:40.742Z,99188.47
2023-04-27T11:53:49.267Z,99188.17
2023-04-27T11:57:04.273Z,99184.55
2023-04-27T12:00:22.173Z,99183.44
2023-04-27T12:03:28.744Z,99187.91
2023-04-27T12:06:42.165Z,99182.59
2023-04-27T12:09:47.651Z,99175.05
2023-04-27T12:12:54.408Z,99179.19
2023-04-27T12:16:01.129Z,99183.39
2023-04-27T12:19:07.344Z,99191.20
2023-04-27T12:22:12.618Z,99197.91
2023-04-27T12:25:18.474Z,99199.31
2023-04-27T12:28:29.896Z,99196.54
2023-04-27T12:31:38.052Z,99200.17
2023-04-27T12:34:43.527Z,99202.66
2023-04-27T12:37:52.044Z,99201.55
2023-04-27T12:40:51.470Z,99210.75
2023-04-27T12:43:58.968Z,99203.22
2023-04-27T12:47:03.938Z,99204.06
2023-04-27T12:50:13.265Z,99209.61
2023-04-27T12:53:19.758Z,99214.01
2023-04-27T12:56:25.347Z,99223.70
2023-04-27T12:59:30.373Z,99225.38
2023-04-27T13:02:37.795Z,99218.92
2023-04-27T13:05:43.620Z,99223.41
2023-04-27T13:08:50.226Z,99226.14
2023-04-27T13:11:57.815Z,99231.70
2023-04-27T13:15:03.889Z,99228.88
2023-04-27T13:18:11.237Z,99232.45
2023-04-27T13:21:17.110Z,99231.04
2023-04-27T13:24:25.055Z,99234.08
2023-04-27T13:27:31.758Z,99234.94
2023-04-27T13:30:37.239Z,99233.47
2023-04-27T13:33:42.965Z,99243.98
2023-04-27T13:36:49.433Z,99241.46
2023-04-27T13:39:54.126Z,99233.91
2023-04-27T13:42:59.916Z,99243.22
2023-04-27T13:46:06.152Z,99247.29
2023-04-27T13:49:11.699Z,99247.81
2023-04-27T13:52:17.795Z,99250.16
2023-04-27T13:55:24.706Z,99254.75
2023-04-27T13:58:31.358Z,99255.73
2023-04-27T14:01:36.518Z,99248.98
2023-04-27T14:04:41.319Z,99250.04
2023-04-27T14:07:46.827Z,99259.01
2023-04-27T14:10:53.498Z,99262.58
2023-04-27T14:13:59.199Z,99268.95
2023-04-27T14:17:07.739Z,99271.33
2023-04-27T14:20:13.229Z,99272.83
2023-04-27T14:23:19.932Z,99274.81
2023-04-27T14:26:25.107Z,99271.44
2023-04-27T14:29:32.628Z,99275.28
2023-04-27T14:32:38.128Z,99274.81
2023-04-27T14:35:44.360Z,99271.28
2023-04-27T14:38:50.513Z,99273.79
2023-04-27T14:41:56.610Z,99271.67
2023-04-27T14:45:01.408Z,99269.14
2023-04-27T14:48:07.156Z,99272.88
2023-04-27T14:51:13.333Z,99277.54
2023-04-27T14:54:18.879Z,99277.27
2023-04-27T14:57:24.180Z,99284.52
2023-04-27T15:00:30.099Z,99293.63
2023-04-27T15:03:36.474Z,99294.89
2023-04-27T15:06:43.111Z,99295.59
2023-04-27T15:09:50.036Z,99298.53
2023-04-27T15:12:55.242Z,99300.67
2023-04-27T15:16:01.015Z,99301.48
2023-04-27T15:19:07.422Z,99305.33
2023-04-27T15:22:13.491Z,99306.41
2023-04-27T15:25:18.490Z,99308.08
2023-04-27T15:28:24.031Z,99309.81
2023-04-27T15:31:29.683Z,99318.47
2023-04-27T15:34:35.359Z,99319.44
2023-04-27T15:37:41.854Z,99325.25
2023-04-27T15:40:47.632Z,99329.28
2023-04-27T15:43:53.308Z,99334.26
2023-04-27T15:46:59.887Z,99337.09
2023-04-27T15:50:07.406Z,99336.14
2023-04-27T15:53:12.695Z,99342.80
2023-04-27T15:56:17.518Z,99340.70
2023-04-27T15:59:24.147Z,99344.75
2023-04-27T16:02:30.490Z,99348.95
2023-04-27T16:05:36.125Z,99347.48
2023-04-27T16:08:41.939Z,99351.90
2023-04-27T16:11:49.668Z,99350.11
2023-04-27T16:14:55.371Z,99355.62
2023-04-27T16:18:01.001Z,99352.77
2023-04-27T16:21:08.071Z,99357.26
2023-04-27T16:24:12.798Z,99363.88
2023-04-27T16:27:18.711Z,99366.00
2023-04-27T16:30:25.318Z,99368.44
2023-04-27T16:33:30.474Z,99376.36
2023-04-27T16:36:43.006Z,99375.97
2023-04-27T16:39:48.913Z,99378.08
2023-04-27T16:42:55.524Z,99384.02
2023-04-27T16:46:02.645Z,99385.30
2023-04-27T16:49:02.761Z,99388.54
2023-04-27T16:52:09.072Z,99394.73
2023-04-27T16:55:14.884Z,99405.09
2023-04-27T16:58:20.202Z,99409.96
2023-04-27T17:01:25.600Z,99421.16
2023-04-27T17:04:31.087Z,99423.02
2023-04-27T17:07:38.457Z,99429.00
2023-04-27T17:10:44.359Z,99426.94
2023-04-27T17:13:49.642Z,99430.16
2023-04-27T17:16:55.823Z,99425.45
2023-04-27T17:20:01.601Z,99431.59
2023-04-27T17:23:11.998Z,99425.05
2023-04-27T17:26:18.570Z,99426.45
2023-04-27T17:29:24.400Z,99426.51
2023-04-27T17:32:30.075Z,99423.72
2023-04-27T17:35:35.797Z,99415.09
2023-04-27T17:38:41.655Z,99425.23
2023-04-27T17:41:47.089Z,99421.02
2023-04-27T17:44:54.315Z,99419.27
2023-04-27T17:48:01.099Z,99420.30
2023-04-27T17:51:06.372Z,99421.14
2023-04-27T17:54:12.282Z,99419.14
2023-04-27T17:57:17.944Z,99422.05
2023-04-27T18:00:25.616Z,99426.39
2023-04-27T18:03:31.136Z,99437.09
2023-04-27T18:06:38.897Z,99432.30
2023-04-27T18:09:44.634Z,99433.38
2023-04-27T18:12:50.762Z,99437.96
2023-04-27T18:15:56.391Z,99438.73
2023-04-27T18:19:02.048Z,99444.47
2023-04-27T18:22:07.304Z,99450.13
2023-04-27T18:25:12.873Z,99450.95
2023-04-27T18:28:18.571Z,99459.50
2023-04-27T18:31:31.956Z,99462.65
2023-04-27T18:34:38.054Z,99469.44
2023-04-27T18:37:43.398Z,99476.37
2023-04-27T18:40:48.628Z,99468.52
2023-04-27T18:43:55.312Z,99467.64
2023-04-27T18:47:01.824Z,99471.03
2023-04-27T18:50:08.166Z,99471.47
2023-04-27T18:53:14.702Z,99467.78
2023-04-27T18:56:21.985Z,99468.84
2023-04-27T18:59:26.572Z,99470.99
2023-04-27T19:02:33.031Z,99469.75
2023-04-27T19:05:38.642Z,99467.36
2023-04-27T19:08:45.287Z,99475.73
2023-04-27T19:12:01.979Z,99476.08
2023-04-27T19:14:58.628Z,99487.19
2023-04-27T19:18:10.675Z,99486.65
2023-04-27T19:21:11.101Z,99485.48
2023-04-27T19:24:19.497Z,99483.49
2023-04-27T19:27:24.855Z,99493.63
2023-04-27T19:30:29.668Z,99490.78
2023-04-27T19:33:36.644Z,99496.61
2023-04-27T19:36:42.325Z,99494.28
2023-04-27T19:39:47.940Z,99482.50
2023-04-27T19:42:53.645Z,99482.72
2023-04-27T19:45:58.314Z,99484.69
2023-04-27T19:49:03.103Z,99497.20
2023-04-27T19:52:08.847Z,99506.41
2023-04-27T19:55:14.339Z,99504.91
2023-04-27T19:58:19.137Z,99499.61
2023-04-27T20:01:24.630Z,99497.50
2023-04-27T20:04:29.826Z,99490.19
2023-04-27T20:07:36.590Z,99491.53
2023-04-27T20:10:41.410Z,99488.36
2023-04-27T20:13:47.205Z,99498.37
2023-04-27T20:16:52.770Z,99496.85
2023-04-27T20:19:58.066Z,99496.34
2023-04-27T20:23:03.168Z,99506.72
2023-04-27T20:26:09.029Z,99506.30
2023-04-27T20:29:14.988Z,99501.26
2023-04-27T20:32:20.249Z,99492.28
2023-04-27T20:35:25.657Z,99488.28
2023-04-27T20:38:31.558Z,99484.68
2023-04-27T20:41:37.849Z,99478.47
2023-04-27T20:44:37.045Z,99482.89
2023-04-27T20:47:43.267Z,99485.61
2023-04-27T20:50:49.323Z,99486.98
2023-04-27T20:53:55.177Z,99479.92
2023-04-27T20:57:00.706Z,99469.69
2023-04-27T21:00:06.451Z,99466.94
2023-04-27T21:03:06.754Z,99470.84
2023-04-27T21:06:12.046Z,99473.16
2023-04-27T21:09:17.113Z,99471.58
2023-04-27T21:12:24.990Z,99472.95
2023-04-27T21:15:25.261Z,99473.61
2023-04-27T21:18:31.081Z,99476.33
2023-04-27T21:21:39.071Z,99489.84
2023-04-27T21:24:45.588Z,99492.17
2023-04-27T21:27:50.987Z,99491.44
2023-04-27T21:30:56.567Z,99497.27
2023-04-27T21:34:02.221Z,99497.36
2023-04-27T21:37:08.959Z,99503.92
2023-04-27T21:40:14.789Z,99501.27
2023-04-27T21:43:20.071Z,99504.52
2023-04-27T21:46:25.442Z,99504.13
2023-04-27T21:49:30.021Z,99503.38
2023-04-27T21:52:35.816Z,99505.30
2023-04-27T21:55:41.399Z,99497.02
2023-04-27T21:58:47.382Z,99495.16
2023-04-27T22:01:53.028Z,99492.91
2023-04-27T22:04:59.857Z,99487.45
2023-04-27T22:08:06.453Z,99480.46
2023-04-27T22:11:04.855Z,99492.19
2023-04-27T22:14:10.415Z,99495.55
2023-04-27T22:17:18.960Z,99495.65
2023-04-27T22:20:24.307Z,99486.16
2023-04-27T22:23:30.386Z,99483.20
2023-04-27T22:26:35.856Z,99483.06
2023-04-27T22:29:43.644Z,99480.31
2023-04-27T22:32:49.512Z,99478.86
2023-04-27T22:35:56.554Z,99474.34
2023-04-27T22:39:04.284Z,99469.81
2023-04-27T22:42:02.451Z,99465.26
2023-04-27T22:45:08.527Z,99462.17
2023-04-27T22:48:13.720Z,99462.06
2023-04-27T22:51:26.102Z,99461.78
2023-04-27T22:54:31.409Z,99458.09
2023-04-27T22:57:37.089Z,99452.98
2023-04-27T23:00:42.836Z,99457.33
2023-04-27T23:03:48.556Z,99456.06
2023-04-27T23:06:55.709Z,99442.66
2023-04-27T23:10:01.888Z,99444.45
2023-04-27T23:13:02.148Z,99450.48
2023-04-27T23:16:08.016Z,99448.33
2023-04-27T23:19:13.052Z,99442.95
2023-04-27T23:22:17.582Z,99441.59
2023-04-27T23:25:23.261Z,99445.83
2023-04-27T23:28:29.279Z,99444.31
2023-04-27T23:31:36.760Z,99441.18
2023-04-27T23:34:43.529Z,99440.23
2023-04-27T23:37:48.781Z,99446.25
2023-04-27T23:40:55.307Z,99453.32
2023-04-27T23:44:01.462Z,99448.24
2023-04-27T23:47:07.250Z,99448.14
2023-04-27T23:50:12.384Z,99451.22
2023-04-27T23:53:18.205Z,99447.85
2023-04-27T23:56:32.101Z,99440.89
2023-04-27T23:59:37.983Z,99445.61
